sensor_id;sensor_type;location;lat;lon;timestamp;temperature;humidity
40996;DHT22;26723;57.478;12.066;2023-05-25T00:00:59;13.80;99.90
40996;DHT22;26723;57.478;12.066;2023-05-25T00:04:09;13.70;99.90
40996;DHT22;26723;57.478;12.066;2023-05-25T00:07:25;13.70;99.90
40996;DHT22;26723;57.478;12.066;2023-05-25T00:10:33;13.70;99.90
40996;DHT22;26723;57.478;12.066;2023-05-25T00:13:42;13.60;99.90
40996;DHT22;26723;57.478;12.066;2023-05-25T00:16:50;13.50;99.90
40996;DHT22;26723;57.478;12.066;2023-05-25T00:19:59;13.30;99.90
40996;DHT22;26723;57.478;12.066;2023-05-25T00:23:15;13.20;99.90
40996;DHT22;26723;57.478;12.066;2023-05-25T00:26:24;13.20;99.90
40996;DHT22;26723;57.478;12.066;2023-05-25T00:29:33;13.10;99.90
40996;DHT22;26723;57.478;12.066;2023-05-25T00:32:42;13.10;99.90
40996;DHT22;26723;57.478;12.066;2023-05-25T00:35:51;13.10;99.90
40996;DHT22;26723;57.478;12.066;2023-05-25T00:39:02;13.00;99.90
40996;DHT22;26723;57.478;12.066;2023-05-25T00:42:10;13.00;99.90
40996;DHT22;26723;57.478;12.066;2023-05-25T00:45:19;12.90;99.90
40996;DHT22;26723;57.478;12.066;2023-05-25T00:48:27;12.90;99.90
40996;DHT22;26723;57.478;12.066;2023-05-25T00:51:36;12.80;99.90
40996;DHT22;26723;57.478;12.066;2023-05-25T00:54:47;12.80;99.90
40996;DHT22;26723;57.478;12.066;2023-05-25T00:57:59;12.80;99.90
40996;DHT22;26723;57.478;12.066;2023-05-25T01:01:11;12.70;99.90
40996;DHT22;26723;57.478;12.066;2023-05-25T01:04:22;12.70;99.90
40996;DHT22;26723;57.478;12.066;2023-05-25T01:07:32;12.70;99.90
40996;DHT22;26723;57.478;12.066;2023-05-25T01:10:48;12.60;99.90
40996;DHT22;26723;57.478;12.066;2023-05-25T01:13:57;12.50;99.90
40996;DHT22;26723;57.478;12.066;2023-05-25T01:17:06;12.50;99.90
40996;DHT22;26723;57.478;12.066;2023-05-25T01:20:16;12.50;99.90
40996;DHT22;26723;57.478;12.066;2023-05-25T01:23:34;12.40;99.90
40996;DHT22;26723;57.478;12.066;2023-05-25T01:26:48;12.30;99.90
40996;DHT22;26723;57.478;12.066;2023-05-25T01:30:02;12.30;99.90
40996;DHT22;26723;57.478;12.066;2023-05-25T01:33:11;12.40;99.90
40996;DHT22;26723;57.478;12.066;2023-05-25T01:36:21;12.60;99.90
40996;DHT22;26723;57.478;12.066;2023-05-25T01:39:31;12.70;99.90
40996;DHT22;26723;57.478;12.066;2023-05-25T01:42:40;12.80;99.90
40996;DHT22;26723;57.478;12.066;2023-05-25T01:45:50;12.90;99.90
40996;DHT22;26723;57.478;12.066;2023-05-25T01:49:09;13.20;99.90
40996;DHT22;26723;57.478;12.066;2023-05-25T01:52:21;13.20;99.90
40996;DHT22;26723;57.478;12.066;2023-05-25T01:55:37;13.30;99.90
40996;DHT22;26723;57.478;12.066;2023-05-25T01:58:47;13.40;99.90
40996;DHT22;26723;57.478;12.066;2023-05-25T02:01:58;13.40;99.90
40996;DHT22;26723;57.478;12.066;2023-05-25T02:05:08;13.50;99.90
40996;DHT22;26723;57.478;12.066;2023-05-25T02:08:17;13.40;99.90
40996;DHT22;26723;57.478;12.066;2023-05-25T02:11:28;13.40;99.90
40996;DHT22;26723;57.478;12.066;2023-05-25T02:14:37;13.30;99.90
40996;DHT22;26723;57.478;12.066;2023-05-25T02:17:45;13.30;99.90
40996;DHT22;26723;57.478;12.066;2023-05-25T02:20:54;13.20;99.90
40996;DHT22;26723;57.478;12.066;2023-05-25T02:24:05;13.10;99.90
40996;DHT22;26723;57.478;12.066;2023-05-25T02:27:17;13.20;99.90
40996;DHT22;26723;57.478;12.066;2023-05-25T02:30:27;13.20;99.90
40996;DHT22;26723;57.478;12.066;2023-05-25T02:33:37;13.20;99.90
40996;DHT22;26723;57.478;12.066;2023-05-25T02:36:45;13.10;99.90
40996;DHT22;26723;57.478;12.066;2023-05-25T02:39:54;13.10;99.90
40996;DHT22;26723;57.478;12.066;2023-05-25T02:43:04;13.10;99.90
40996;DHT22;26723;57.478;12.066;2023-05-25T02:46:12;13.00;99.90
40996;DHT22;26723;57.478;12.066;2023-05-25T02:49:21;12.90;99.90
40996;DHT22;26723;57.478;12.066;2023-05-25T02:52:30;12.90;99.90
40996;DHT22;26723;57.478;12.066;2023-05-25T02:55:38;12.80;99.90
40996;DHT22;26723;57.478;12.066;2023-05-25T02:58:57;12.70;99.90
40996;DHT22;26723;57.478;12.066;2023-05-25T03:02:09;12.70;99.90
40996;DHT22;26723;57.478;12.066;2023-05-25T03:05:19;12.60;99.90
40996;DHT22;26723;57.478;12.066;2023-05-25T03:08:27;12.60;99.90
40996;DHT22;26723;57.478;12.066;2023-05-25T03:11:38;12.60;99.90
40996;DHT22;26723;57.478;12.066;2023-05-25T03:14:51;12.60;99.90
40996;DHT22;26723;57.478;12.066;2023-05-25T03:18:01;12.70;99.90
40996;DHT22;26723;57.478;12.066;2023-05-25T03:21:14;12.80;99.90
40996;DHT22;26723;57.478;12.066;2023-05-25T03:24:23;12.90;99.90
40996;DHT22;26723;57.478;12.066;2023-05-25T03:27:35;12.90;99.90
40996;DHT22;26723;57.478;12.066;2023-05-25T03:30:45;12.80;99.90
40996;DHT22;26723;57.478;12.066;2023-05-25T03:33:54;12.90;99.90
40996;DHT22;26723;57.478;12.066;2023-05-25T03:37:03;13.00;99.90
40996;DHT22;26723;57.478;12.066;2023-05-25T03:40:12;13.00;99.90
40996;DHT22;26723;57.478;12.066;2023-05-25T03:43:21;12.90;99.90
40996;DHT22;26723;57.478;12.066;2023-05-25T03:46:31;12.90;99.90
40996;DHT22;26723;57.478;12.066;2023-05-25T03:49:42;12.90;99.90
40996;DHT22;26723;57.478;12.066;2023-05-25T03:52:52;12.80;99.90
40996;DHT22;26723;57.478;12.066;2023-05-25T03:56:01;12.80;99.90
40996;DHT22;26723;57.478;12.066;2023-05-25T03:59:10;12.80;99.90
40996;DHT22;26723;57.478;12.066;2023-05-25T04:02:23;12.90;99.90
40996;DHT22;26723;57.478;12.066;2023-05-25T04:05:34;12.80;99.90
40996;DHT22;26723;57.478;12.066;2023-05-25T04:08:43;12.80;99.90
40996;DHT22;26723;57.478;12.066;2023-05-25T04:11:51;12.80;99.90
40996;DHT22;26723;57.478;12.066;2023-05-25T04:15:03;12.90;99.90
40996;DHT22;26723;57.478;12.066;2023-05-25T04:18:27;12.90;99.90
40996;DHT22;26723;57.478;12.066;2023-05-25T04:21:36;12.90;99.90
40996;DHT22;26723;57.478;12.066;2023-05-25T04:24:45;12.90;99.90
40996;DHT22;26723;57.478;12.066;2023-05-25T04:27:55;12.80;99.90
40996;DHT22;26723;57.478;12.066;2023-05-25T04:31:22;12.90;99.90
40996;DHT22;26723;57.478;12.066;2023-05-25T04:34:55;12.80;99.90
40996;DHT22;26723;57.478;12.066;2023-05-25T04:38:08;12.90;99.90
40996;DHT22;26723;57.478;12.066;2023-05-25T04:41:18;12.90;99.90
40996;DHT22;26723;57.478;12.066;2023-05-25T04:44:32;13.00;99.90
40996;DHT22;26723;57.478;12.066;2023-05-25T04:47:43;13.00;99.90
40996;DHT22;26723;57.478;12.066;2023-05-25T04:50:55;13.10;99.90
40996;DHT22;26723;57.478;12.066;2023-05-25T04:54:04;13.10;99.90
40996;DHT22;26723;57.478;12.066;2023-05-25T04:57:13;13.20;99.90
40996;DHT22;26723;57.478;12.066;2023-05-25T05:00:23;13.20;99.90
40996;DHT22;26723;57.478;12.066;2023-05-25T05:03:33;13.30;99.90
40996;DHT22;26723;57.478;12.066;2023-05-25T05:06:44;13.40;99.90
40996;DHT22;26723;57.478;12.066;2023-05-25T05:09:59;13.50;99.90
40996;DHT22;26723;57.478;12.066;2023-05-25T05:13:08;13.50;99.90
40996;DHT22;26723;57.478;12.066;2023-05-25T05:16:17;13.60;99.90
40996;DHT22;26723;57.478;12.066;2023-05-25T05:19:27;13.60;99.90
40996;DHT22;26723;57.478;12.066;2023-05-25T05:22:37;13.60;99.90
40996;DHT22;26723;57.478;12.066;2023-05-25T05:25:46;13.70;99.90
40996;DHT22;26723;57.478;12.066;2023-05-25T05:28:55;13.80;99.90
40996;DHT22;26723;57.478;12.066;2023-05-25T05:32:04;13.90;99.90
40996;DHT22;26723;57.478;12.066;2023-05-25T05:35:13;14.00;99.90
40996;DHT22;26723;57.478;12.066;2023-05-25T05:38:27;14.10;99.90
40996;DHT22;26723;57.478;12.066;2023-05-25T05:41:44;14.10;99.90
40996;DHT22;26723;57.478;12.066;2023-05-25T05:44:53;14.30;99.90
40996;DHT22;26723;57.478;12.066;2023-05-25T05:48:02;14.30;99.90
40996;DHT22;26723;57.478;12.066;2023-05-25T05:51:12;14.50;99.90
40996;DHT22;26723;57.478;12.066;2023-05-25T05:54:23;14.60;99.90
40996;DHT22;26723;57.478;12.066;2023-05-25T05:57:35;14.80;99.90
40996;DHT22;26723;57.478;12.066;2023-05-25T06:00:44;15.00;99.90
40996;DHT22;26723;57.478;12.066;2023-05-25T06:03:54;15.20;99.90
40996;DHT22;26723;57.478;12.066;2023-05-25T06:07:03;15.30;99.90
40996;DHT22;26723;57.478;12.066;2023-05-25T06:10:13;15.50;99.90
40996;DHT22;26723;57.478;12.066;2023-05-25T06:13:23;15.80;99.90
40996;DHT22;26723;57.478;12.066;2023-05-25T06:16:34;16.20;99.90
40996;DHT22;26723;57.478;12.066;2023-05-25T06:19:43;16.40;99.90
40996;DHT22;26723;57.478;12.066;2023-05-25T06:22:54;16.80;99.90
40996;DHT22;26723;57.478;12.066;2023-05-25T06:26:04;17.50;99.90
40996;DHT22;26723;57.478;12.066;2023-05-25T06:29:13;18.90;99.90
40996;DHT22;26723;57.478;12.066;2023-05-25T06:32:23;19.00;99.90
40996;DHT22;26723;57.478;12.066;2023-05-25T06:35:32;19.20;99.90
40996;DHT22;26723;57.478;12.066;2023-05-25T06:38:41;19.70;99.90
40996;DHT22;26723;57.478;12.066;2023-05-25T06:41:50;19.90;99.90
40996;DHT22;26723;57.478;12.066;2023-05-25T06:45:09;20.40;99.90
40996;DHT22;26723;57.478;12.066;2023-05-25T06:48:18;21.00;99.90
40996;DHT22;26723;57.478;12.066;2023-05-25T06:51:27;21.50;99.90
40996;DHT22;26723;57.478;12.066;2023-05-25T06:54:36;21.50;99.90
40996;DHT22;26723;57.478;12.066;2023-05-25T06:57:46;21.80;99.90
40996;DHT22;26723;57.478;12.066;2023-05-25T07:00:54;21.80;99.90
40996;DHT22;26723;57.478;12.066;2023-05-25T07:04:03;22.30;99.90
40996;DHT22;26723;57.478;12.066;2023-05-25T07:07:11;22.10;99.90
40996;DHT22;26723;57.478;12.066;2023-05-25T07:10:21;22.40;99.90
40996;DHT22;26723;57.478;12.066;2023-05-25T07:13:31;22.80;99.30
40996;DHT22;26723;57.478;12.066;2023-05-25T07:16:40;22.60;97.50
40996;DHT22;26723;57.478;12.066;2023-05-25T07:19:48;22.40;98.10
40996;DHT22;26723;57.478;12.066;2023-05-25T07:22:57;23.00;97.10
40996;DHT22;26723;57.478;12.066;2023-05-25T07:26:07;23.30;96.40
40996;DHT22;26723;57.478;12.066;2023-05-25T07:29:17;23.40;95.80
40996;DHT22;26723;57.478;12.066;2023-05-25T07:32:25;23.60;96.30
40996;DHT22;26723;57.478;12.066;2023-05-25T07:35:34;23.50;94.90
40996;DHT22;26723;57.478;12.066;2023-05-25T07:38:42;23.80;95.40
40996;DHT22;26723;57.478;12.066;2023-05-25T07:41:51;24.00;94.80
40996;DHT22;26723;57.478;12.066;2023-05-25T07:45:01;24.10;93.70
40996;DHT22;26723;57.478;12.066;2023-05-25T07:48:10;23.90;91.60
40996;DHT22;26723;57.478;12.066;2023-05-25T07:51:18;23.60;93.30
40996;DHT22;26723;57.478;12.066;2023-05-25T07:54:27;24.40;92.40
40996;DHT22;26723;57.478;12.066;2023-05-25T07:57:35;24.50;94.10
40996;DHT22;26723;57.478;12.066;2023-05-25T08:00:45;24.80;94.10
40996;DHT22;26723;57.478;12.066;2023-05-25T08:03:55;24.90;91.80
40996;DHT22;26723;57.478;12.066;2023-05-25T08:07:04;24.20;94.90
40996;DHT22;26723;57.478;12.066;2023-05-25T08:10:13;24.90;92.50
40996;DHT22;26723;57.478;12.066;2023-05-25T08:13:22;24.40;92.00
40996;DHT22;26723;57.478;12.066;2023-05-25T08:16:32;24.40;92.40
40996;DHT22;26723;57.478;12.066;2023-05-25T08:19:40;24.80;92.50
40996;DHT22;26723;57.478;12.066;2023-05-25T08:22:49;24.80;94.40
40996;DHT22;26723;57.478;12.066;2023-05-25T08:26:01;25.10;92.40
40996;DHT22;26723;57.478;12.066;2023-05-25T08:29:26;24.40;93.60
40996;DHT22;26723;57.478;12.066;2023-05-25T08:32:37;24.00;91.70
40996;DHT22;26723;57.478;12.066;2023-05-25T08:35:45;24.00;92.60
40996;DHT22;26723;57.478;12.066;2023-05-25T08:38:57;24.30;93.00
40996;DHT22;26723;57.478;12.066;2023-05-25T08:42:06;24.60;92.00
40996;DHT22;26723;57.478;12.066;2023-05-25T08:45:15;24.50;92.70
40996;DHT22;26723;57.478;12.066;2023-05-25T08:48:42;24.60;91.30
40996;DHT22;26723;57.478;12.066;2023-05-25T08:51:53;24.30;92.00
40996;DHT22;26723;57.478;12.066;2023-05-25T08:55:03;24.60;91.90
40996;DHT22;26723;57.478;12.066;2023-05-25T08:58:15;24.40;91.10
40996;DHT22;26723;57.478;12.066;2023-05-25T09:01:25;24.80;92.40
40996;DHT22;26723;57.478;12.066;2023-05-25T09:04:37;24.40;91.40
40996;DHT22;26723;57.478;12.066;2023-05-25T09:07:46;24.70;91.90
40996;DHT22;26723;57.478;12.066;2023-05-25T09:10:56;24.20;91.00
40996;DHT22;26723;57.478;12.066;2023-05-25T09:14:05;24.20;91.30
40996;DHT22;26723;57.478;12.066;2023-05-25T09:17:15;23.90;91.70
40996;DHT22;26723;57.478;12.066;2023-05-25T09:20:26;23.70;91.80
40996;DHT22;26723;57.478;12.066;2023-05-25T09:23:37;23.60;92.00
40996;DHT22;26723;57.478;12.066;2023-05-25T09:26:47;23.60;91.80
40996;DHT22;26723;57.478;12.066;2023-05-25T09:29:55;23.90;92.50
40996;DHT22;26723;57.478;12.066;2023-05-25T09:33:10;23.50;91.50
40996;DHT22;26723;57.478;12.066;2023-05-25T09:36:21;23.40;91.10
40996;DHT22;26723;57.478;12.066;2023-05-25T09:39:30;23.20;91.00
40996;DHT22;26723;57.478;12.066;2023-05-25T09:42:39;23.30;91.70
40996;DHT22;26723;57.478;12.066;2023-05-25T09:45:48;23.30;91.40
40996;DHT22;26723;57.478;12.066;2023-05-25T09:48:59;23.10;92.10
40996;DHT22;26723;57.478;12.066;2023-05-25T09:52:11;23.00;91.90
40996;DHT22;26723;57.478;12.066;2023-05-25T09:55:19;23.00;91.90
40996;DHT22;26723;57.478;12.066;2023-05-25T09:58:29;23.20;91.80
40996;DHT22;26723;57.478;12.066;2023-05-25T10:01:38;22.90;90.90
40996;DHT22;26723;57.478;12.066;2023-05-25T10:04:49;22.50;91.10
40996;DHT22;26723;57.478;12.066;2023-05-25T10:08:00;22.40;91.30
40996;DHT22;26723;57.478;12.066;2023-05-25T10:11:12;22.60;91.50
40996;DHT22;26723;57.478;12.066;2023-05-25T10:14:24;22.20;91.50
40996;DHT22;26723;57.478;12.066;2023-05-25T10:17:42;22.20;91.50
40996;DHT22;26723;57.478;12.066;2023-05-25T10:20:59;22.00;91.90
40996;DHT22;26723;57.478;12.066;2023-05-25T10:24:20;22.00;91.90
40996;DHT22;26723;57.478;12.066;2023-05-25T10:27:35;22.20;92.20
40996;DHT22;26723;57.478;12.066;2023-05-25T10:30:47;22.20;91.60
40996;DHT22;26723;57.478;12.066;2023-05-25T10:33:57;21.70;92.40
40996;DHT22;26723;57.478;12.066;2023-05-25T10:37:07;21.50;93.00
40996;DHT22;26723;57.478;12.066;2023-05-25T10:40:18;21.40;91.70
40996;DHT22;26723;57.478;12.066;2023-05-25T10:43:28;21.40;92.30
40996;DHT22;26723;57.478;12.066;2023-05-25T10:46:37;21.30;93.10
40996;DHT22;26723;57.478;12.066;2023-05-25T10:49:53;21.70;93.40
40996;DHT22;26723;57.478;12.066;2023-05-25T10:53:05;21.80;93.30
40996;DHT22;26723;57.478;12.066;2023-05-25T10:56:15;21.80;93.50
40996;DHT22;26723;57.478;12.066;2023-05-25T10:59:26;21.80;93.40
40996;DHT22;26723;57.478;12.066;2023-05-25T11:02:48;21.90;93.40
40996;DHT22;26723;57.478;12.066;2023-05-25T11:05:59;21.70;93.60
40996;DHT22;26723;57.478;12.066;2023-05-25T11:09:22;21.70;94.70
40996;DHT22;26723;57.478;12.066;2023-05-25T11:12:33;21.10;96.40
40996;DHT22;26723;57.478;12.066;2023-05-25T11:15:43;21.30;94.20
40996;DHT22;26723;57.478;12.066;2023-05-25T11:20:00;21.30;94.80
40996;DHT22;26723;57.478;12.066;2023-05-25T11:23:22;21.40;95.40
40996;DHT22;26723;57.478;12.066;2023-05-25T11:26:33;21.30;93.50
40996;DHT22;26723;57.478;12.066;2023-05-25T11:29:43;21.00;95.10
40996;DHT22;26723;57.478;12.066;2023-05-25T11:33:01;20.50;95.20
40996;DHT22;26723;57.478;12.066;2023-05-25T11:36:21;20.70;96.30
40996;DHT22;26723;57.478;12.066;2023-05-25T11:39:45;20.40;96.90
40996;DHT22;26723;57.478;12.066;2023-05-25T11:42:56;20.50;97.60
40996;DHT22;26723;57.478;12.066;2023-05-25T11:46:09;20.20;97.60
40996;DHT22;26723;57.478;12.066;2023-05-25T11:49:20;20.00;97.80
40996;DHT22;26723;57.478;12.066;2023-05-25T11:52:29;20.00;97.90
40996;DHT22;26723;57.478;12.066;2023-05-25T11:55:37;19.80;98.20
40996;DHT22;26723;57.478;12.066;2023-05-25T11:58:50;19.80;98.00
40996;DHT22;26723;57.478;12.066;2023-05-25T12:02:06;19.70;98.80
40996;DHT22;26723;57.478;12.066;2023-05-25T12:05:17;19.60;97.90
40996;DHT22;26723;57.478;12.066;2023-05-25T12:08:32;19.40;98.60
40996;DHT22;26723;57.478;12.066;2023-05-25T12:11:40;19.10;98.90
40996;DHT22;26723;57.478;12.066;2023-05-25T12:14:52;19.10;99.50
40996;DHT22;26723;57.478;12.066;2023-05-25T12:18:04;18.90;99.20
40996;DHT22;26723;57.478;12.066;2023-05-25T12:21:13;19.00;98.90
40996;DHT22;26723;57.478;12.066;2023-05-25T12:24:23;19.10;99.20
40996;DHT22;26723;57.478;12.066;2023-05-25T12:27:32;18.90;98.30
40996;DHT22;26723;57.478;12.066;2023-05-25T12:30:41;18.70;97.70
40996;DHT22;26723;57.478;12.066;2023-05-25T12:34:04;18.90;98.20
40996;DHT22;26723;57.478;12.066;2023-05-25T12:37:17;18.60;98.80
40996;DHT22;26723;57.478;12.066;2023-05-25T12:40:26;18.60;98.60
40996;DHT22;26723;57.478;12.066;2023-05-25T12:43:38;18.50;96.80
40996;DHT22;26723;57.478;12.066;2023-05-25T12:46:47;18.50;98.20
40996;DHT22;26723;57.478;12.066;2023-05-25T12:50:14;18.30;98.20
40996;DHT22;26723;57.478;12.066;2023-05-25T12:53:24;18.20;99.20
40996;DHT22;26723;57.478;12.066;2023-05-25T12:56:33;18.20;99.40
40996;DHT22;26723;57.478;12.066;2023-05-25T12:59:45;18.10;99.20
40996;DHT22;26723;57.478;12.066;2023-05-25T13:02:56;17.90;99.90
40996;DHT22;26723;57.478;12.066;2023-05-25T13:06:06;17.80;98.80
40996;DHT22;26723;57.478;12.066;2023-05-25T13:09:15;18.00;98.80
40996;DHT22;26723;57.478;12.066;2023-05-25T13:12:24;18.00;97.30
40996;DHT22;26723;57.478;12.066;2023-05-25T13:15:32;18.00;97.30
40996;DHT22;26723;57.478;12.066;2023-05-25T13:18:41;18.00;97.30
40996;DHT22;26723;57.478;12.066;2023-05-25T13:21:52;17.80;98.60
40996;DHT22;26723;57.478;12.066;2023-05-25T13:25:03;17.70;98.30
40996;DHT22;26723;57.478;12.066;2023-05-25T13:28:11;17.60;98.80
40996;DHT22;26723;57.478;12.066;2023-05-25T13:31:20;17.40;99.90
40996;DHT22;26723;57.478;12.066;2023-05-25T13:34:29;17.50;99.90
40996;DHT22;26723;57.478;12.066;2023-05-25T13:37:41;17.30;99.90
40996;DHT22;26723;57.478;12.066;2023-05-25T13:40:50;17.20;99.90
40996;DHT22;26723;57.478;12.066;2023-05-25T13:43:58;17.20;99.90
40996;DHT22;26723;57.478;12.066;2023-05-25T13:47:09;17.20;99.90
40996;DHT22;26723;57.478;12.066;2023-05-25T13:50:20;17.30;99.90
40996;DHT22;26723;57.478;12.066;2023-05-25T13:53:31;17.00;99.90
40996;DHT22;26723;57.478;12.066;2023-05-25T13:56:40;16.90;99.90
40996;DHT22;26723;57.478;12.066;2023-05-25T13:59:48;16.90;99.90
40996;DHT22;26723;57.478;12.066;2023-05-25T14:02:59;16.80;99.90
40996;DHT22;26723;57.478;12.066;2023-05-25T14:06:08;16.90;99.90
40996;DHT22;26723;57.478;12.066;2023-05-25T14:09:18;16.80;99.90
40996;DHT22;26723;57.478;12.066;2023-05-25T14:12:27;16.80;99.90
40996;DHT22;26723;57.478;12.066;2023-05-25T14:15:36;16.90;99.90
40996;DHT22;26723;57.478;12.066;2023-05-25T14:18:45;16.80;99.90
40996;DHT22;26723;57.478;12.066;2023-05-25T14:21:53;16.80;99.90
40996;DHT22;26723;57.478;12.066;2023-05-25T14:25:20;16.80;99.90
40996;DHT22;26723;57.478;12.066;2023-05-25T14:28:29;16.70;99.90
40996;DHT22;26723;57.478;12.066;2023-05-25T14:31:38;16.70;99.90
40996;DHT22;26723;57.478;12.066;2023-05-25T14:34:47;16.70;99.90
40996;DHT22;26723;57.478;12.066;2023-05-25T14:37:55;16.60;99.90
40996;DHT22;26723;57.478;12.066;2023-05-25T14:41:06;16.60;99.90
40996;DHT22;26723;57.478;12.066;2023-05-25T14:44:17;16.60;99.90
40996;DHT22;26723;57.478;12.066;2023-05-25T14:47:26;16.50;99.90
40996;DHT22;26723;57.478;12.066;2023-05-25T14:50:36;16.50;99.90
40996;DHT22;26723;57.478;12.066;2023-05-25T14:53:49;16.50;99.90
40996;DHT22;26723;57.478;12.066;2023-05-25T14:57:15;16.40;99.90
40996;DHT22;26723;57.478;12.066;2023-05-25T15:00:24;16.30;99.90
40996;DHT22;26723;57.478;12.066;2023-05-25T15:03:33;16.30;99.90
40996;DHT22;26723;57.478;12.066;2023-05-25T15:06:43;16.30;99.90
40996;DHT22;26723;57.478;12.066;2023-05-25T15:09:52;16.40;99.90
40996;DHT22;26723;57.478;12.066;2023-05-25T15:13:03;16.40;99.90
40996;DHT22;26723;57.478;12.066;2023-05-25T15:16:19;16.30;99.90
40996;DHT22;26723;57.478;12.066;2023-05-25T15:19:27;16.30;99.90
40996;DHT22;26723;57.478;12.066;2023-05-25T15:22:38;16.40;99.90
40996;DHT22;26723;57.478;12.066;2023-05-25T15:25:47;16.30;99.90
40996;DHT22;26723;57.478;12.066;2023-05-25T15:28:58;16.10;99.90
40996;DHT22;26723;57.478;12.066;2023-05-25T15:32:15;16.30;99.90
40996;DHT22;26723;57.478;12.066;2023-05-25T15:35:24;16.30;99.90
40996;DHT22;26723;57.478;12.066;2023-05-25T15:38:41;16.30;99.90
40996;DHT22;26723;57.478;12.066;2023-05-25T15:41:50;16.30;99.90
40996;DHT22;26723;57.478;12.066;2023-05-25T15:45:13;16.20;99.90
40996;DHT22;26723;57.478;12.066;2023-05-25T15:48:21;16.20;99.90
40996;DHT22;26723;57.478;12.066;2023-05-25T15:51:32;16.10;99.90
40996;DHT22;26723;57.478;12.066;2023-05-25T15:54:41;16.10;99.90
40996;DHT22;26723;57.478;12.066;2023-05-25T15:57:49;16.00;99.90
40996;DHT22;26723;57.478;12.066;2023-05-25T16:00:59;16.00;99.90
40996;DHT22;26723;57.478;12.066;2023-05-25T16:04:43;16.10;99.90
40996;DHT22;26723;57.478;12.066;2023-05-25T16:07:51;16.00;99.90
40996;DHT22;26723;57.478;12.066;2023-05-25T16:11:00;16.00;99.90
40996;DHT22;26723;57.478;12.066;2023-05-25T16:14:13;16.10;99.90
40996;DHT22;26723;57.478;12.066;2023-05-25T16:17:24;16.00;99.90
40996;DHT22;26723;57.478;12.066;2023-05-25T16:20:34;15.80;99.90
40996;DHT22;26723;57.478;12.066;2023-05-25T16:23:43;15.80;99.90
40996;DHT22;26723;57.478;12.066;2023-05-25T16:26:51;15.80;99.90
40996;DHT22;26723;57.478;12.066;2023-05-25T16:30:00;15.80;99.90
40996;DHT22;26723;57.478;12.066;2023-05-25T16:33:10;15.70;99.90
40996;DHT22;26723;57.478;12.066;2023-05-25T16:36:19;15.60;99.90
40996;DHT22;26723;57.478;12.066;2023-05-25T16:39:27;15.60;99.90
40996;DHT22;26723;57.478;12.066;2023-05-25T16:42:36;15.70;99.90
40996;DHT22;26723;57.478;12.066;2023-05-25T16:45:44;15.80;99.90
40996;DHT22;26723;57.478;12.066;2023-05-25T16:48:55;15.80;99.90
40996;DHT22;26723;57.478;12.066;2023-05-25T16:52:04;15.60;99.90
40996;DHT22;26723;57.478;12.066;2023-05-25T16:55:13;15.60;99.90
40996;DHT22;26723;57.478;12.066;2023-05-25T16:58:24;15.60;99.90
40996;DHT22;26723;57.478;12.066;2023-05-25T17:01:32;15.60;99.90
40996;DHT22;26723;57.478;12.066;2023-05-25T17:04:43;15.70;99.90
40996;DHT22;26723;57.478;12.066;2023-05-25T17:07:52;15.70;99.90
40996;DHT22;26723;57.478;12.066;2023-05-25T17:11:01;15.60;99.90
40996;DHT22;26723;57.478;12.066;2023-05-25T17:14:09;15.60;99.90
40996;DHT22;26723;57.478;12.066;2023-05-25T17:17:18;15.60;99.90
40996;DHT22;26723;57.478;12.066;2023-05-25T17:20:28;15.60;99.90
40996;DHT22;26723;57.478;12.066;2023-05-25T17:23:37;15.50;99.90
40996;DHT22;26723;57.478;12.066;2023-05-25T17:26:46;15.50;99.90
40996;DHT22;26723;57.478;12.066;2023-05-25T17:29:57;15.40;99.90
40996;DHT22;26723;57.478;12.066;2023-05-25T17:33:06;15.40;99.90
40996;DHT22;26723;57.478;12.066;2023-05-25T17:36:16;15.30;99.90
40996;DHT22;26723;57.478;12.066;2023-05-25T17:39:25;15.20;99.90
40996;DHT22;26723;57.478;12.066;2023-05-25T17:42:33;15.20;99.90
40996;DHT22;26723;57.478;12.066;2023-05-25T17:45:42;15.20;99.90
40996;DHT22;26723;57.478;12.066;2023-05-25T17:48:52;15.30;99.90
40996;DHT22;26723;57.478;12.066;2023-05-25T17:52:02;15.20;99.90
40996;DHT22;26723;57.478;12.066;2023-05-25T17:55:10;15.20;99.90
40996;DHT22;26723;57.478;12.066;2023-05-25T17:58:19;15.10;99.90
40996;DHT22;26723;57.478;12.066;2023-05-25T18:01:28;15.10;99.90
40996;DHT22;26723;57.478;12.066;2023-05-25T18:04:37;15.00;99.90
40996;DHT22;26723;57.478;12.066;2023-05-25T18:07:47;14.90;99.90
40996;DHT22;26723;57.478;12.066;2023-05-25T18:10:55;14.80;99.90
40996;DHT22;26723;57.478;12.066;2023-05-25T18:14:04;14.90;99.90
40996;DHT22;26723;57.478;12.066;2023-05-25T18:17:12;14.90;99.90
40996;DHT22;26723;57.478;12.066;2023-05-25T18:20:22;14.80;99.90
40996;DHT22;26723;57.478;12.066;2023-05-25T18:23:32;14.80;99.90
40996;DHT22;26723;57.478;12.066;2023-05-25T18:26:40;14.70;99.90
40996;DHT22;26723;57.478;12.066;2023-05-25T18:29:51;14.60;99.90
40996;DHT22;26723;57.478;12.066;2023-05-25T18:33:00;14.50;99.90
40996;DHT22;26723;57.478;12.066;2023-05-25T18:36:12;14.50;99.90
40996;DHT22;26723;57.478;12.066;2023-05-25T18:39:22;14.50;99.90
40996;DHT22;26723;57.478;12.066;2023-05-25T18:42:30;14.40;99.90
40996;DHT22;26723;57.478;12.066;2023-05-25T18:45:40;14.30;99.90
40996;DHT22;26723;57.478;12.066;2023-05-25T18:48:49;14.20;99.90
40996;DHT22;26723;57.478;12.066;2023-05-25T18:51:58;14.20;99.90
40996;DHT22;26723;57.478;12.066;2023-05-25T18:55:09;14.20;99.90
40996;DHT22;26723;57.478;12.066;2023-05-25T18:58:17;14.10;99.90
40996;DHT22;26723;57.478;12.066;2023-05-25T19:01:27;14.00;99.90
40996;DHT22;26723;57.478;12.066;2023-05-25T19:04:35;14.00;99.90
40996;DHT22;26723;57.478;12.066;2023-05-25T19:07:44;13.90;99.90
40996;DHT22;26723;57.478;12.066;2023-05-25T19:10:57;13.90;99.90
40996;DHT22;26723;57.478;12.066;2023-05-25T19:14:06;13.80;99.90
40996;DHT22;26723;57.478;12.066;2023-05-25T19:17:15;13.80;99.90
40996;DHT22;26723;57.478;12.066;2023-05-25T19:20:23;13.80;99.90
40996;DHT22;26723;57.478;12.066;2023-05-25T19:23:35;13.80;99.90
40996;DHT22;26723;57.478;12.066;2023-05-25T19:26:45;13.70;99.90
40996;DHT22;26723;57.478;12.066;2023-05-25T19:29:56;13.70;99.90
40996;DHT22;26723;57.478;12.066;2023-05-25T19:33:05;13.60;99.90
40996;DHT22;26723;57.478;12.066;2023-05-25T19:36:14;13.60;99.90
40996;DHT22;26723;57.478;12.066;2023-05-25T19:39:22;13.60;99.90
40996;DHT22;26723;57.478;12.066;2023-05-25T19:42:32;13.50;99.90
40996;DHT22;26723;57.478;12.066;2023-05-25T19:45:41;13.50;99.90